Portada
METAR-TAF:

METAR-TAF

Aeropuertos :

El Aaiún, Marruecos

Aeropuerto Internacional Hassan I

latitud: 27-10N, longitud: 013-12-59W, altitud: 6 m

Observación

El informe se hizo hace 47 minutos, a las 18:00 UTC
Viento 15 kt del norte
Temperatura 28°C
Humedad 42%
Presión 1019 hPa
Visibilidad 10 km o más
sin nubes por debajo de 1500 m y sin presencia de cumulonimbus.

METAR: GMML 171800Z 35015KT CAVOK 28/14 Q1019 NOSIG

Hora: 19:47 (18:47 UTC)

Pronóstico

El informe se hizo hace 1 hora y 47 minutos, a las 17:00 UTC
Pronóstico válido del 17 a las 18 UTC al 18 a las 24 UTC
Viento 8 kt del este
Visibilidad 10 km o más
sin nubes por debajo de 1500 m y sin presencia de cumulonimbus.
Evolucionando progresivamente
del 17 a las 18 UTC al 17 a las 20 UTC
Viento 12 kt del norte-noreste

TAF: GMML 171700Z 1718/1824 08008KT CAVOK BECMG 1718/1720 02012KT

Observaciones y pronósticos meteorológicos de más de 4000 aeropuertos (mensajes METAR y TAF).

Los puntos amarillos y rojos representan las estaciones disponibles.

Ponga el ratón en el punto deseado para ver el nombre de la estación.

Haga clic para ver las observaciones y los pronósticos meteorológicos.

Para cambiar el mapa : haga clic en los botones verdes con una cruz de color negro para hacer un zoom, en el botón verde con un guión para alejar o en las flechas verdes para mapas adyacentes.


METAR-TAF: